Time;durP1;ratioP1;P1;durP2;ratioP2;P2;SDS_P1;SDS_P2;PMS_P1;PMS_P2;Temp;Humidity;BMP_temperature;BMP_pressure;BME280_temperature;BME280_humidity;BME280_pressure;Samples;Min_cycle;Max_cycle;Signal;HPM_P1;HPM_P2
2023/12/17 00:01:09;;;;;;;32.00;21.87;;;3.70;99.60;;;;;;5086434;28;20232;-64
2023/12/17 00:03:37;;;;;;;33.03;22.17;;;3.70;99.60;;;;;;5080924;28;20196;-65
2023/12/17 00:06:05;;;;;;;31.23;21.63;;;3.70;99.70;;;;;;5078769;28;20203;-65
2023/12/17 00:08:33;;;;;;;32.90;21.43;;;3.70;99.80;;;;;;5079253;28;20192;-64
2023/12/17 00:11:00;;;;;;;29.50;21.90;;;3.70;99.90;;;;;;5078451;28;20198;-65
2023/12/17 00:13:27;;;;;;;35.00;23.13;;;3.70;99.90;;;;;;5084814;28;20222;-65
2023/12/17 00:15:54;;;;;;;38.67;22.97;;;3.70;99.90;;;;;;5079304;28;20207;-65
2023/12/17 00:18:21;;;;;;;33.57;20.70;;;3.60;99.90;;;;;;5079722;28;20265;-65
2023/12/17 00:20:49;;;;;;;30.83;20.33;;;3.60;99.90;;;;;;5081225;28;20684;-65
2023/12/17 00:23:16;;;;;;;34.73;20.27;;;3.60;99.90;;;;;;5080296;28;20271;-65
2023/12/17 00:25:43;;;;;;;29.80;21.83;;;3.60;99.90;;;;;;5084361;28;20202;-65
2023/12/17 00:28:10;;;;;;;30.13;20.00;;;3.50;99.90;;;;;;5077386;28;20276;-65
2023/12/17 00:30:37;;;;;;;30.13;20.53;;;3.50;99.90;;;;;;5084080;28;20206;-64
2023/12/17 00:33:04;;;;;;;29.17;21.47;;;3.50;99.90;;;;;;5080049;28;20237;-65
2023/12/17 00:35:33;;;;;;;31.93;22.57;;;3.50;99.90;;;;;;5084185;28;20225;-65
2023/12/17 00:38:00;;;;;;;31.33;21.73;;;3.50;99.90;;;;;;5081134;28;20200;-65
2023/12/17 00:40:27;;;;;;;26.90;20.50;;;3.50;99.90;;;;;;5079205;28;20211;-65
2023/12/17 00:42:54;;;;;;;29.40;20.73;;;3.50;99.90;;;;;;5085972;28;20213;-65
2023/12/17 00:45:21;;;;;;;26.83;19.73;;;3.50;99.90;;;;;;5083891;28;20238;-64
2023/12/17 00:47:48;;;;;;;28.63;20.60;;;3.50;99.90;;;;;;5079857;28;21047;-65
2023/12/17 00:50:16;;;;;;;33.43;23.50;;;3.40;99.90;;;;;;5082460;28;20231;-65
2023/12/17 00:52:43;;;;;;;29.23;21.53;;;3.40;99.90;;;;;;5086646;28;20209;-65
2023/12/17 00:55:10;;;;;;;32.90;22.30;;;3.40;99.90;;;;;;5076956;28;20235;-65
2023/12/17 00:57:37;;;;;;;26.77;21.17;;;3.40;99.90;;;;;;5079396;28;20211;-65
2023/12/17 01:00:05;;;;;;;28.67;20.53;;;3.40;99.90;;;;;;5077267;28;20205;-65
2023/12/17 01:02:32;;;;;;;27.90;19.53;;;3.40;99.90;;;;;;5078837;28;20217;-65
2023/12/17 01:04:59;;;;;;;32.40;22.10;;;3.50;99.90;;;;;;5076630;28;20971;-65
2023/12/17 01:07:27;;;;;;;28.73;21.43;;;3.50;99.90;;;;;;5082450;28;20229;-65
2023/12/17 01:09:54;;;;;;;32.03;20.60;;;3.50;99.90;;;;;;5081860;28;20196;-65
2023/12/17 01:12:20;;;;;;;26.77;19.33;;;3.50;99.90;;;;;;5083245;28;20207;-65
2023/12/17 01:14:48;;;;;;;27.73;18.70;;;3.50;99.90;;;;;;5082230;28;20207;-64
2023/12/17 01:17:15;;;;;;;28.30;19.13;;;3.40;99.90;;;;;;5077629;28;20282;-65
2023/12/17 01:19:42;;;;;;;32.53;20.57;;;3.40;99.90;;;;;;5085179;28;20209;-65
2023/12/17 01:22:09;;;;;;;29.10;21.10;;;3.40;99.90;;;;;;5079119;28;20670;-65
2023/12/17 01:24:37;;;;;;;28.30;21.00;;;3.30;99.90;;;;;;5082717;28;20200;-65
2023/12/17 01:27:04;;;;;;;32.73;19.20;;;3.30;99.90;;;;;;5083869;28;20211;-65
2023/12/17 01:29:32;;;;;;;26.00;18.60;;;3.30;99.90;;;;;;5084192;28;20188;-65
2023/12/17 01:31:59;;;;;;;24.50;19.97;;;3.30;99.90;;;;;;5088198;28;20269;-65
2023/12/17 01:34:26;;;;;;;31.00;19.77;;;3.20;99.90;;;;;;5086746;28;20223;-64
2023/12/17 01:36:53;;;;;;;31.33;21.80;;;3.20;99.90;;;;;;5086105;28;20602;-64
2023/12/17 01:39:20;;;;;;;30.53;22.03;;;3.20;99.90;;;;;;5078421;28;20236;-64
2023/12/17 01:41:48;;;;;;;31.57;21.53;;;3.20;99.90;;;;;;5087795;28;20217;-65
2023/12/17 01:44:15;;;;;;;30.53;19.90;;;3.20;99.90;;;;;;5084903;28;20196;-65
2023/12/17 01:46:42;;;;;;;32.13;21.77;;;3.20;99.90;;;;;;5085323;28;20205;-65
2023/12/17 01:49:10;;;;;;;30.50;19.73;;;3.20;99.90;;;;;;5084262;28;20556;-65
2023/12/17 01:51:38;;;;;;;27.67;20.00;;;3.20;99.90;;;;;;5084623;28;20201;-64
2023/12/17 01:54:05;;;;;;;28.27;20.87;;;3.20;99.90;;;;;;5083240;28;20197;-64
2023/12/17 01:56:33;;;;;;;29.80;19.97;;;3.20;99.90;;;;;;5088004;28;20211;-65
2023/12/17 01:59:01;;;;;;;31.00;20.17;;;3.20;99.90;;;;;;5083091;28;20333;-65
2023/12/17 02:01:28;;;;;;;26.53;19.30;;;3.20;99.90;;;;;;5082917;28;20573;-65
2023/12/17 02:03:56;;;;;;;28.47;20.50;;;3.10;99.90;;;;;;5085662;28;20224;-64
2023/12/17 02:06:23;;;;;;;26.37;19.60;;;3.20;99.90;;;;;;5084893;28;20204;-64
2023/12/17 02:08:50;;;;;;;31.60;19.90;;;3.20;99.90;;;;;;5079416;28;20193;-65
2023/12/17 02:11:17;;;;;;;24.87;18.10;;;3.20;99.90;;;;;;5087320;28;20302;-65
2023/12/17 02:13:44;;;;;;;30.77;18.40;;;3.20;99.90;;;;;;5082706;28;20542;-65
2023/12/17 02:16:13;;;;;;;31.90;18.97;;;3.20;99.90;;;;;;5089478;28;20218;-64
2023/12/17 02:18:40;;;;;;;24.67;19.17;;;3.20;99.90;;;;;;5085797;28;20202;-65
2023/12/17 02:21:07;;;;;;;27.90;19.00;;;3.20;99.90;;;;;;5080580;28;20204;-65
2023/12/17 02:23:35;;;;;;;29.20;19.70;;;3.20;99.90;;;;;;5085031;28;20223;-64
2023/12/17 02:26:03;;;;;;;29.67;19.50;;;3.20;99.90;;;;;;5081132;28;20715;-64
2023/12/17 02:28:30;;;;;;;28.60;18.93;;;3.20;99.90;;;;;;5085626;28;20205;-64
2023/12/17 02:30:58;;;;;;;28.23;17.97;;;3.20;99.90;;;;;;5089610;28;20628;-64
2023/12/17 02:33:25;;;;;;;26.63;18.67;;;3.20;99.90;;;;;;5086544;28;20220;-65
2023/12/17 02:35:52;;;;;;;24.47;17.90;;;3.20;99.90;;;;;;5089797;28;20207;-65
2023/12/17 02:38:19;;;;;;;26.23;20.07;;;3.20;99.90;;;;;;5082128;28;20212;-64
2023/12/17 02:40:46;;;;;;;30.20;19.20;;;3.20;99.90;;;;;;5083745;28;20205;-65
2023/12/17 02:43:13;;;;;;;29.57;18.97;;;3.20;99.90;;;;;;5087869;28;20222;-65
2023/12/17 02:45:40;;;;;;;26.00;19.07;;;3.20;99.90;;;;;;5079981;28;20259;-65
2023/12/17 02:48:08;;;;;;;28.43;18.83;;;3.20;99.90;;;;;;5078961;28;20196;-64
2023/12/17 02:50:35;;;;;;;26.10;18.57;;;3.20;99.90;;;;;;5078163;28;20235;-64
2023/12/17 02:53:02;;;;;;;26.03;17.93;;;3.20;99.90;;;;;;5079463;28;20219;-65
2023/12/17 02:55:29;;;;;;;27.03;18.93;;;3.20;99.90;;;;;;5081579;28;20205;-65
2023/12/17 02:57:56;;;;;;;30.77;19.30;;;3.20;99.90;;;;;;5083739;28;20271;-64
2023/12/17 03:00:23;;;;;;;25.17;19.17;;;3.20;99.90;;;;;;5080469;28;20325;-65
2023/12/17 03:02:50;;;;;;;25.53;17.83;;;3.20;99.90;;;;;;5084572;28;20214;-65
2023/12/17 03:05:18;;;;;;;24.50;17.20;;;3.20;99.90;;;;;;5079826;28;20221;-65
2023/12/17 03:07:45;;;;;;;24.57;17.63;;;3.20;99.90;;;;;;5083020;28;20227;-65
2023/12/17 03:10:12;;;;;;;26.07;18.70;;;3.20;99.90;;;;;;5080134;28;20206;-65
2023/12/17 03:12:39;;;;;;;26.90;18.60;;;3.20;99.90;;;;;;5082377;28;20213;-65
2023/12/17 03:15:07;;;;;;;26.80;18.40;;;3.20;99.90;;;;;;5081238;28;20574;-64
2023/12/17 03:17:37;;;;;;;21.90;16.77;;;3.20;99.90;;;;;;5083141;28;20287;-64
2023/12/17 03:20:05;;;;;;;23.10;16.33;;;3.20;99.90;;;;;;5083647;28;20526;-64
2023/12/17 03:22:32;;;;;;;24.40;16.27;;;3.20;99.90;;;;;;5085365;28;20273;-64
2023/12/17 03:25:00;;;;;;;24.10;16.43;;;3.20;99.90;;;;;;5083739;28;20242;-64
2023/12/17 03:27:28;;;;;;;23.67;16.00;;;3.20;99.90;;;;;;5083993;28;20587;-64
2023/12/17 03:29:55;;;;;;;26.13;16.63;;;3.20;99.90;;;;;;5100041;28;20611;-64
2023/12/17 03:32:22;;;;;;;25.33;16.27;;;3.20;99.90;;;;;;5084581;28;20250;-64
2023/12/17 03:34:50;;;;;;;26.67;16.67;;;3.20;99.90;;;;;;5082847;28;20242;-65
2023/12/17 03:37:18;;;;;;;24.43;16.57;;;3.20;99.90;;;;;;5086642;28;20192;-64
2023/12/17 03:39:45;;;;;;;25.93;16.70;;;3.10;99.90;;;;;;5078398;28;20264;-65
2023/12/17 03:42:12;;;;;;;25.23;16.13;;;3.10;99.90;;;;;;5082440;28;20549;-64
2023/12/17 03:44:39;;;;;;;20.87;15.37;;;3.10;99.90;;;;;;5080793;28;20208;-64
2023/12/17 03:47:06;;;;;;;22.50;15.37;;;3.10;99.90;;;;;;5079414;28;20534;-64
2023/12/17 03:49:33;;;;;;;22.87;15.50;;;3.10;99.90;;;;;;5077133;28;20201;-65
2023/12/17 03:52:03;;;;;;;22.33;15.83;;;3.10;99.90;;;;;;5077755;28;20207;-64
2023/12/17 03:54:30;;;;;;;22.83;16.43;;;3.10;99.90;;;;;;5074908;28;20197;-64
2023/12/17 03:56:57;;;;;;;22.23;15.20;;;3.10;99.90;;;;;;5082460;28;20204;-64
2023/12/17 03:59:25;;;;;;;21.10;15.23;;;3.10;99.90;;;;;;5080684;28;20232;-65
2023/12/17 04:01:52;;;;;;;22.57;16.00;;;3.00;99.90;;;;;;5078533;28;20669;-65
2023/12/17 04:04:19;;;;;;;19.13;14.63;;;3.00;99.90;;;;;;5081917;28;20224;-64
2023/12/17 04:06:46;;;;;;;20.30;15.20;;;3.00;99.90;;;;;;5081064;28;20207;-65
2023/12/17 04:09:14;;;;;;;18.40;14.60;;;3.00;99.90;;;;;;5087109;28;20642;-64
2023/12/17 04:11:41;;;;;;;20.33;14.93;;;3.00;99.90;;;;;;5081220;28;20214;-64
2023/12/17 04:14:08;;;;;;;21.63;14.50;;;3.00;99.90;;;;;;5080472;28;20208;-64
2023/12/17 04:16:35;;;;;;;19.63;14.10;;;3.00;99.90;;;;;;5084179;28;20239;-64
2023/12/17 04:19:03;;;;;;;20.43;13.80;;;2.90;99.90;;;;;;5084259;28;20199;-64
2023/12/17 04:21:30;;;;;;;25.60;14.50;;;3.00;99.90;;;;;;5085542;28;20263;-65
2023/12/17 04:23:57;;;;;;;19.93;14.77;;;3.00;99.90;;;;;;5085558;28;20669;-64
2023/12/17 04:26:25;;;;;;;21.70;14.07;;;3.00;99.90;;;;;;5080728;28;20201;-64
2023/12/17 04:28:52;;;;;;;18.07;13.70;;;2.90;99.90;;;;;;5086475;28;20279;-64
2023/12/17 04:31:19;;;;;;;25.50;14.00;;;2.90;99.90;;;;;;5079169;28;20192;-65
2023/12/17 04:33:46;;;;;;;21.23;14.30;;;2.90;99.90;;;;;;5084043;28;20196;-65
2023/12/17 04:36:13;;;;;;;20.07;13.80;;;2.90;99.90;;;;;;5082625;28;20204;-65
2023/12/17 04:38:41;;;;;;;19.30;14.17;;;2.90;99.90;;;;;;5077131;28;20207;-64
2023/12/17 04:41:08;;;;;;;21.53;14.97;;;2.90;99.90;;;;;;5077790;28;20204;-65
2023/12/17 04:43:35;;;;;;;19.63;14.67;;;2.90;99.90;;;;;;5077647;28;20206;-64
2023/12/17 04:46:03;;;;;;;20.00;14.60;;;2.90;99.80;;;;;;5081992;28;20317;-64
2023/12/17 04:48:30;;;;;;;18.33;13.50;;;2.90;99.80;;;;;;5082654;28;20193;-64
2023/12/17 04:50:58;;;;;;;18.27;13.73;;;2.90;99.80;;;;;;5075145;28;20204;-65
2023/12/17 04:53:25;;;;;;;22.20;14.60;;;2.90;99.80;;;;;;5078912;28;20624;-65
2023/12/17 04:55:52;;;;;;;19.67;14.17;;;2.90;99.80;;;;;;5079686;28;20201;-64
2023/12/17 04:58:19;;;;;;;22.13;14.90;;;2.90;99.80;;;;;;5078850;28;20215;-65
2023/12/17 05:00:46;;;;;;;20.90;14.93;;;2.80;99.80;;;;;;5080833;28;20575;-64
2023/12/17 05:03:13;;;;;;;20.30;15.20;;;2.80;99.70;;;;;;5085923;28;20313;-64
2023/12/17 05:05:40;;;;;;;21.10;14.33;;;2.80;99.70;;;;;;5077411;28;20188;-65
2023/12/17 05:08:08;;;;;;;21.40;15.43;;;2.80;99.70;;;;;;5083467;28;20273;-66
2023/12/17 05:10:35;;;;;;;19.37;13.90;;;2.80;99.80;;;;;;5073973;28;20201;-67
2023/12/17 05:13:02;;;;;;;21.77;14.97;;;2.80;99.80;;;;;;5087190;28;20299;-68
2023/12/17 05:15:31;;;;;;;23.80;15.73;;;2.70;99.80;;;;;;5072462;28;20215;-67
2023/12/17 05:17:59;;;;;;;22.23;15.47;;;2.70;99.80;;;;;;5081462;28;20215;-64
2023/12/17 05:20:27;;;;;;;23.27;16.03;;;2.70;99.90;;;;;;5078198;28;20200;-64
2023/12/17 05:22:54;;;;;;;23.07;15.50;;;2.70;99.90;;;;;;5085240;28;20332;-64
2023/12/17 05:25:21;;;;;;;25.23;16.80;;;2.70;99.90;;;;;;5082091;28;20633;-64
2023/12/17 05:27:48;;;;;;;25.83;17.40;;;2.70;99.90;;;;;;5082238;28;20526;-64
2023/12/17 05:30:16;;;;;;;29.10;16.73;;;2.70;99.90;;;;;;5090249;28;20211;-64
2023/12/17 05:32:43;;;;;;;21.80;16.87;;;2.70;99.90;;;;;;5082274;28;20212;-64
2023/12/17 05:35:10;;;;;;;22.77;17.27;;;2.70;99.90;;;;;;5085358;28;20216;-64
2023/12/17 05:37:37;;;;;;;27.17;17.17;;;2.70;99.90;;;;;;5076992;28;20197;-64
2023/12/17 05:40:06;;;;;;;25.43;17.43;;;2.70;99.90;;;;;;5086834;28;20616;-64
2023/12/17 05:42:35;;;;;;;28.23;17.80;;;2.70;99.90;;;;;;5080163;28;20265;-64
2023/12/17 05:45:02;;;;;;;25.23;16.83;;;2.70;99.90;;;;;;5079981;28;20264;-64
2023/12/17 05:47:33;;;;;;;28.67;17.30;;;2.70;99.90;;;;;;5080886;28;20211;-64
2023/12/17 05:50:01;;;;;;;24.90;17.33;;;2.70;99.90;;;;;;5083880;28;20604;-64
2023/12/17 05:52:29;;;;;;;26.40;17.73;;;2.80;99.90;;;;;;5075141;28;20260;-64
2023/12/17 05:54:56;;;;;;;23.63;17.70;;;2.70;99.90;;;;;;5083566;28;20213;-64
2023/12/17 05:57:23;;;;;;;22.90;16.53;;;2.70;99.90;;;;;;5084136;28;20614;-64
2023/12/17 05:59:50;;;;;;;28.13;17.87;;;2.80;99.90;;;;;;5075319;28;20196;-63
2023/12/17 06:02:17;;;;;;;25.80;18.23;;;2.70;99.90;;;;;;5076904;28;20327;-63
2023/12/17 06:04:44;;;;;;;27.53;17.87;;;2.70;99.90;;;;;;5078225;28;20265;-64
2023/12/17 06:07:11;;;;;;;29.77;17.47;;;2.70;99.90;;;;;;5083338;28;20207;-64
2023/12/17 06:09:40;;;;;;;28.37;18.70;;;2.70;99.90;;;;;;5083263;28;20694;-65
2023/12/17 06:12:07;;;;;;;24.40;16.57;;;2.70;99.90;;;;;;5075782;28;20206;-65
2023/12/17 06:14:34;;;;;;;25.53;17.93;;;2.70;99.90;;;;;;5076600;28;20650;-65
2023/12/17 06:17:01;;;;;;;27.10;18.07;;;2.70;99.90;;;;;;5086147;28;20289;-65
2023/12/17 06:19:29;;;;;;;26.93;18.27;;;2.70;99.90;;;;;;5083677;28;20515;-65
2023/12/17 06:21:56;;;;;;;22.90;16.27;;;2.70;99.90;;;;;;5085005;28;20299;-65
2023/12/17 06:24:23;;;;;;;24.03;17.83;;;2.70;99.90;;;;;;5088581;28;20212;-64
2023/12/17 06:26:53;;;;;;;26.20;17.50;;;2.70;99.90;;;;;;5083927;28;20195;-65
2023/12/17 06:29:20;;;;;;;23.43;15.83;;;2.70;99.90;;;;;;5082240;28;20304;-65
2023/12/17 06:31:47;;;;;;;27.37;17.23;;;2.70;99.90;;;;;;5087417;28;20249;-64
2023/12/17 06:34:14;;;;;;;22.33;16.67;;;2.70;99.90;;;;;;5083510;28;20663;-64
2023/12/17 06:36:41;;;;;;;20.70;15.50;;;2.70;99.90;;;;;;5087416;28;20293;-64
2023/12/17 06:39:09;;;;;;;25.10;17.13;;;2.70;99.90;;;;;;5083319;28;20199;-64
2023/12/17 06:41:45;;;;;;;22.83;15.40;;;2.70;99.90;;;;;;5089013;28;20203;-64
2023/12/17 06:44:12;;;;;;;23.57;16.80;;;2.60;99.90;;;;;;5080299;28;20224;-65
2023/12/17 06:46:39;;;;;;;23.80;15.97;;;2.60;99.90;;;;;;5088422;28;20196;-65
2023/12/17 06:49:07;;;;;;;24.53;15.87;;;2.60;99.90;;;;;;5086489;28;20266;-65
2023/12/17 06:51:38;;;;;;;23.43;17.13;;;2.60;99.90;;;;;;5084429;28;20201;-65
2023/12/17 06:54:06;;;;;;;24.90;16.23;;;2.60;99.90;;;;;;5081750;28;20251;-65
2023/12/17 06:56:33;;;;;;;22.23;14.97;;;2.60;99.90;;;;;;5080045;28;20208;-65
2023/12/17 06:59:01;;;;;;;25.90;15.77;;;2.60;99.90;;;;;;5084144;28;20251;-65
2023/12/17 07:01:28;;;;;;;21.33;14.57;;;2.60;99.90;;;;;;5085619;28;20244;-65
2023/12/17 07:03:55;;;;;;;20.93;14.97;;;2.60;99.90;;;;;;5086831;28;20203;-65
2023/12/17 07:06:23;;;;;;;20.17;15.53;;;2.60;99.90;;;;;;5085355;28;20246;-65
2023/12/17 07:08:50;;;;;;;21.70;14.80;;;2.60;99.90;;;;;;5082373;28;20204;-64
2023/12/17 07:11:18;;;;;;;23.17;15.93;;;2.60;99.90;;;;;;5085061;28;20216;-65
2023/12/17 07:13:45;;;;;;;22.43;14.70;;;2.70;99.90;;;;;;5086197;28;20201;-65
2023/12/17 07:16:22;;;;;;;19.00;14.73;;;2.70;99.90;;;;;;5083609;28;20634;-65
2023/12/17 07:18:50;;;;;;;18.63;14.10;;;2.70;99.90;;;;;;5078985;28;20198;-65
2023/12/17 07:21:18;;;;;;;25.17;14.20;;;2.70;99.90;;;;;;5084359;28;20215;-64
2023/12/17 07:23:46;;;;;;;19.40;14.57;;;2.80;99.90;;;;;;5085017;28;20213;-65
2023/12/17 07:26:14;;;;;;;22.33;15.97;;;2.80;99.90;;;;;;5084647;28;20196;-65
2023/12/17 07:28:41;;;;;;;20.80;14.73;;;2.80;99.90;;;;;;5083344;28;20192;-65
2023/12/17 07:31:08;;;;;;;20.03;15.03;;;2.90;99.90;;;;;;5083332;28;20246;-65
2023/12/17 07:33:35;;;;;;;24.10;14.73;;;2.90;99.90;;;;;;5082093;28;20338;-65
2023/12/17 07:36:03;;;;;;;20.13;15.67;;;2.90;99.90;;;;;;5083500;28;20258;-64
2023/12/17 07:38:32;;;;;;;17.40;14.67;;;3.00;99.90;;;;;;5084670;28;20197;-64
2023/12/17 07:40:59;;;;;;;23.07;15.57;;;3.10;99.90;;;;;;5083117;28;20202;-65
2023/12/17 07:43:26;;;;;;;20.47;15.07;;;3.10;99.90;;;;;;5088173;28;20228;-65
2023/12/17 07:45:54;;;;;;;23.50;15.70;;;3.10;99.90;;;;;;5083375;28;20242;-65
2023/12/17 07:48:21;;;;;;;21.57;17.30;;;3.20;99.90;;;;;;5081401;28;20207;-65
2023/12/17 07:50:48;;;;;;;22.57;16.50;;;3.30;99.90;;;;;;5080439;28;20559;-65
2023/12/17 07:53:15;;;;;;;25.10;16.57;;;3.30;99.90;;;;;;5075707;28;20584;-64
2023/12/17 07:55:43;;;;;;;23.33;16.80;;;3.40;99.90;;;;;;5078554;28;20251;-64
2023/12/17 07:58:10;;;;;;;24.57;17.87;;;3.40;99.90;;;;;;5077547;28;20599;-65
2023/12/17 08:00:37;;;;;;;21.87;17.43;;;3.50;99.90;;;;;;5083680;28;20251;-65
2023/12/17 08:03:04;;;;;;;24.33;17.13;;;3.50;99.90;;;;;;5082867;28;20296;-64
2023/12/17 08:05:31;;;;;;;25.50;18.00;;;3.60;99.90;;;;;;5079178;28;20213;-64
2023/12/17 08:07:58;;;;;;;26.43;17.07;;;3.60;99.90;;;;;;5077574;28;20239;-65
2023/12/17 08:10:25;;;;;;;22.03;16.57;;;3.70;99.90;;;;;;5082390;28;20655;-64
2023/12/17 08:12:52;;;;;;;26.10;16.33;;;3.70;99.90;;;;;;5079134;28;20660;-64
2023/12/17 08:15:19;;;;;;;25.63;17.30;;;3.80;99.90;;;;;;5082289;28;20269;-65
2023/12/17 08:17:46;;;;;;;24.53;17.67;;;3.90;99.90;;;;;;5082776;28;20200;-64
2023/12/17 08:20:14;;;;;;;24.53;16.87;;;3.90;99.90;;;;;;5080656;28;20208;-64
2023/12/17 08:22:41;;;;;;;26.77;17.33;;;4.00;99.90;;;;;;5081883;28;20225;-64
2023/12/17 08:25:08;;;;;;;25.87;17.93;;;4.10;99.90;;;;;;5082644;28;20224;-64
2023/12/17 08:27:35;;;;;;;23.80;18.03;;;4.10;99.90;;;;;;5083341;28;20196;-65
2023/12/17 08:30:02;;;;;;;20.67;16.77;;;4.20;99.90;;;;;;5081072;28;20199;-64
2023/12/17 08:32:32;;;;;;;21.00;16.13;;;4.20;99.90;;;;;;5082503;28;20209;-64
2023/12/17 08:35:00;;;;;;;24.77;17.60;;;4.30;99.90;;;;;;5085414;28;20258;-65
2023/12/17 08:37:29;;;;;;;24.37;17.60;;;4.40;99.90;;;;;;5080879;28;20283;-64
2023/12/17 08:39:56;;;;;;;25.30;17.70;;;4.40;99.90;;;;;;5081548;28;20300;-65
2023/12/17 08:42:23;;;;;;;23.73;16.40;;;4.50;99.90;;;;;;5082773;28;20284;-64
2023/12/17 08:44:51;;;;;;;23.47;17.43;;;4.60;99.80;;;;;;5079818;28;20300;-64
2023/12/17 08:47:18;;;;;;;22.47;17.57;;;4.60;99.80;;;;;;5079257;28;20228;-64
2023/12/17 08:49:45;;;;;;;25.43;17.73;;;4.70;99.80;;;;;;5080257;28;20224;-65
2023/12/17 08:52:12;;;;;;;24.80;17.10;;;4.80;99.70;;;;;;5084749;28;20258;-64
2023/12/17 08:54:39;;;;;;;23.70;16.53;;;4.80;99.60;;;;;;5085600;28;20201;-64
2023/12/17 08:57:06;;;;;;;23.73;16.70;;;4.90;99.60;;;;;;5089638;28;20212;-64
2023/12/17 08:59:33;;;;;;;22.37;16.93;;;4.90;99.50;;;;;;5076737;28;20207;-64
2023/12/17 09:02:00;;;;;;;27.60;17.27;;;5.00;99.50;;;;;;5081850;28;20248;-64
2023/12/17 09:04:28;;;;;;;23.70;17.50;;;5.00;99.40;;;;;;5086571;28;20650;-64
2023/12/17 09:06:55;;;;;;;28.40;17.77;;;5.10;99.40;;;;;;5084648;28;20194;-64
2023/12/17 09:09:22;;;;;;;25.27;18.50;;;5.20;99.40;;;;;;5076706;28;20185;-64
2023/12/17 09:11:49;;;;;;;23.37;17.93;;;5.20;99.40;;;;;;5098051;28;20201;-64
2023/12/17 09:14:16;;;;;;;27.87;18.17;;;5.30;99.30;;;;;;5079656;28;20291;-65
2023/12/17 09:16:44;;;;;;;26.57;18.37;;;5.30;99.30;;;;;;5086207;28;20205;-65
2023/12/17 09:19:11;;;;;;;25.03;18.50;;;5.40;99.30;;;;;;5078489;28;20635;-65
2023/12/17 09:21:39;;;;;;;25.63;20.03;;;5.50;99.30;;;;;;5081126;28;20216;-65
2023/12/17 09:24:06;;;;;;;32.30;19.00;;;5.60;99.20;;;;;;5079148;28;20217;-64
2023/12/17 09:26:33;;;;;;;25.07;18.87;;;5.60;99.20;;;;;;5082832;28;20304;-65
2023/12/17 09:29:03;;;;;;;25.93;18.70;;;5.70;99.20;;;;;;5080363;28;20530;-65
2023/12/17 09:31:30;;;;;;;28.27;19.70;;;5.80;99.10;;;;;;5080289;28;20236;-65
2023/12/17 09:33:58;;;;;;;28.30;19.50;;;5.90;99.10;;;;;;5081102;28;20657;-65
2023/12/17 09:36:27;;;;;;;27.47;19.83;;;5.90;99.10;;;;;;5086193;28;20207;-65
2023/12/17 09:38:55;;;;;;;25.23;19.30;;;6.00;99.10;;;;;;5082177;28;20200;-65
2023/12/17 09:41:23;;;;;;;26.23;17.33;;;6.10;99.00;;;;;;5079975;28;20198;-65
2023/12/17 09:43:53;;;;;;;28.23;18.13;;;6.20;99.10;;;;;;5082161;28;20474;-65
2023/12/17 09:46:20;;;;;;;28.77;18.23;;;6.30;99.00;;;;;;5084796;28;20551;-65
2023/12/17 09:48:47;;;;;;;26.40;17.33;;;6.30;98.90;;;;;;5080615;28;20247;-65
2023/12/17 09:51:15;;;;;;;22.63;18.20;;;6.40;98.90;;;;;;5083107;28;20278;-65
2023/12/17 09:53:43;;;;;;;23.30;18.50;;;6.50;98.80;;;;;;5084616;28;20205;-65
2023/12/17 09:56:12;;;;;;;20.27;16.10;;;6.50;98.80;;;;;;5082901;28;20197;-64
2023/12/17 09:58:39;;;;;;;22.00;16.43;;;6.60;98.80;;;;;;5086103;28;20209;-64
2023/12/17 10:01:07;;;;;;;19.00;16.60;;;6.70;98.70;;;;;;5081857;28;20268;-64
2023/12/17 10:03:35;;;;;;;21.53;17.10;;;6.80;98.70;;;;;;5080753;28;20211;-64
2023/12/17 10:06:03;;;;;;;21.33;14.97;;;6.80;98.70;;;;;;5085392;28;20217;-64
2023/12/17 10:08:30;;;;;;;20.40;15.30;;;6.90;98.60;;;;;;5083269;28;20228;-65
2023/12/17 10:10:58;;;;;;;18.17;15.47;;;7.00;98.50;;;;;;5081067;28;20213;-65
2023/12/17 10:13:25;;;;;;;20.60;15.20;;;7.00;98.40;;;;;;5087116;28;20255;-65
2023/12/17 10:15:54;;;;;;;18.50;15.00;;;7.10;98.40;;;;;;5084709;28;20193;-65
2023/12/17 10:18:23;;;;;;;17.63;13.87;;;7.20;98.40;;;;;;5087601;28;20224;-65
2023/12/17 10:20:50;;;;;;;16.43;13.97;;;7.30;98.30;;;;;;5088450;28;20234;-65
2023/12/17 10:23:18;;;;;;;18.13;15.03;;;7.40;98.20;;;;;;5083023;28;20218;-64
2023/12/17 10:25:45;;;;;;;20.63;13.97;;;7.50;98.20;;;;;;5083311;28;20645;-65
2023/12/17 10:28:13;;;;;;;17.83;14.37;;;7.50;98.00;;;;;;5080331;28;20261;-65
2023/12/17 10:30:41;;;;;;;16.07;14.37;;;7.60;97.90;;;;;;5083478;28;20202;-65
2023/12/17 10:33:14;;;;;;;18.73;14.43;;;7.70;97.80;;;;;;5086325;28;20199;-64
2023/12/17 10:35:42;;;;;;;17.23;13.17;;;7.70;97.80;;;;;;5083643;28;20202;-64
2023/12/17 10:38:12;;;;;;;15.50;13.70;;;7.80;97.70;;;;;;5080274;28;20214;-64
2023/12/17 10:40:41;;;;;;;17.50;12.80;;;7.90;97.70;;;;;;5081038;28;20229;-65
2023/12/17 10:43:12;;;;;;;14.87;12.83;;;8.00;97.70;;;;;;5086711;28;20525;-64
2023/12/17 10:45:43;;;;;;;15.00;12.93;;;8.00;97.50;;;;;;5074203;28;20217;-65
2023/12/17 10:48:12;;;;;;;16.40;13.67;;;8.20;97.40;;;;;;5082801;28;20223;-65
2023/12/17 10:50:41;;;;;;;19.13;14.13;;;8.20;97.30;;;;;;5064494;28;20195;-64
2023/12/17 10:53:09;;;;;;;17.33;13.03;;;8.20;97.20;;;;;;5083543;28;20209;-64
2023/12/17 10:55:36;;;;;;;19.13;13.43;;;8.30;97.20;;;;;;5081766;28;20226;-65
2023/12/17 10:58:15;;;;;;;19.50;13.97;;;8.40;97.10;;;;;;5090085;28;20208;-65
2023/12/17 11:00:43;;;;;;;14.80;12.20;;;8.40;97.00;;;;;;5080177;28;20321;-65
2023/12/17 11:03:13;;;;;;;17.80;12.80;;;8.50;96.90;;;;;;5086704;28;20202;-64
2023/12/17 11:05:59;;;;;;;15.13;13.50;;;8.60;97.10;;;;;;5078552;28;20229;-64
2023/12/17 11:08:28;;;;;;;14.83;13.23;;;8.60;96.70;;;;;;5076762;28;20277;-64
2023/12/17 11:10:56;;;;;;;16.07;12.37;;;8.70;96.70;;;;;;5087094;28;20193;-65
2023/12/17 11:13:24;;;;;;;18.63;13.40;;;8.80;96.60;;;;;;5086951;28;20195;-65
2023/12/17 11:15:52;;;;;;;16.20;12.63;;;8.90;96.50;;;;;;5080514;28;20230;-65
2023/12/17 11:18:23;;;;;;;16.30;12.20;;;8.90;96.50;;;;;;5083208;28;20214;-65
2023/12/17 11:20:53;;;;;;;16.57;13.13;;;9.00;96.40;;;;;;5084111;28;20217;-65
2023/12/17 11:23:21;;;;;;;15.53;12.97;;;9.10;96.30;;;;;;5081151;28;20205;-65
2023/12/17 11:25:48;;;;;;;17.80;12.60;;;9.20;96.20;;;;;;5082505;28;20307;-65
2023/12/17 11:28:25;;;;;;;16.37;13.00;;;9.30;96.00;;;;;;5081128;28;20222;-65
2023/12/17 11:30:55;;;;;;;18.07;14.03;;;9.40;95.90;;;;;;5080773;28;20211;-65
2023/12/17 11:33:23;;;;;;;15.33;13.53;;;9.40;95.80;;;;;;5084611;28;20242;-65
2023/12/17 11:35:51;;;;;;;16.20;12.93;;;9.50;95.70;;;;;;5088124;28;20204;-65
2023/12/17 11:38:20;;;;;;;14.03;12.47;;;9.60;95.60;;;;;;5082309;28;20225;-65
2023/12/17 11:40:47;;;;;;;17.13;13.07;;;9.60;95.10;;;;;;5084331;28;20303;-65
2023/12/17 11:43:14;;;;;;;13.37;11.20;;;9.70;94.90;;;;;;5081726;28;20199;-64
2023/12/17 11:45:44;;;;;;;20.57;13.23;;;9.80;94.80;;;;;;5089146;28;20622;-65
2023/12/17 11:48:14;;;;;;;16.73;13.00;;;9.80;94.60;;;;;;5081887;28;20716;-65
2023/12/17 11:50:46;;;;;;;15.57;12.80;;;9.90;94.40;;;;;;5082603;28;20194;-65
2023/12/17 11:53:17;;;;;;;13.33;11.90;;;10.00;94.20;;;;;;5078424;28;20199;-65
2023/12/17 11:55:46;;;;;;;18.33;12.83;;;10.00;94.00;;;;;;5083096;28;20206;-64
2023/12/17 11:58:15;;;;;;;16.17;12.00;;;10.10;93.90;;;;;;5071808;28;20212;-65
2023/12/17 12:01:08;;;;;;;15.27;11.13;;;10.10;93.40;;;;;;5086859;28;20255;-65
2023/12/17 12:03:40;;;;;;;12.43;11.10;;;10.20;92.80;;;;;;5083613;28;20228;-65
2023/12/17 12:06:10;;;;;;;16.23;12.03;;;10.20;92.70;;;;;;5078431;28;20721;-65
2023/12/17 12:08:45;;;;;;;13.57;11.37;;;10.20;92.70;;;;;;5080947;28;20272;-65
2023/12/17 12:11:13;;;;;;;15.87;12.23;;;10.30;92.80;;;;;;5082060;28;20227;-65
2023/12/17 12:13:48;;;;;;;15.57;10.73;;;10.30;92.80;;;;;;5076273;28;20640;-65
2023/12/17 12:16:17;;;;;;;15.40;12.07;;;10.40;92.70;;;;;;5082546;28;20205;-65
2023/12/17 12:18:45;;;;;;;13.03;11.13;;;10.40;92.60;;;;;;5080910;28;20244;-65
2023/12/17 12:21:19;;;;;;;16.43;11.93;;;10.50;92.30;;;;;;5087968;28;20696;-65
2023/12/17 12:23:54;;;;;;;13.60;11.43;;;10.50;92.30;;;;;;5082816;28;20197;-64
2023/12/17 12:26:23;;;;;;;13.17;11.40;;;10.60;92.20;;;;;;5083570;28;20222;-65
2023/12/17 12:28:57;;;;;;;13.10;11.70;;;10.60;92.10;;;;;;5071384;28;20188;-64
2023/12/17 12:31:25;;;;;;;17.33;12.30;;;10.70;92.10;;;;;;5089847;28;20646;-64
2023/12/17 12:34:00;;;;;;;17.17;12.00;;;10.70;92.10;;;;;;5082331;28;20198;-65
2023/12/17 12:36:48;;;;;;;16.50;12.53;;;10.80;92.10;;;;;;5081590;28;20211;-65
2023/12/17 12:39:18;;;;;;;19.43;12.50;;;10.80;92.10;;;;;;5082739;28;20209;-65